Time;durP1;ratioP1;P1;durP2;ratioP2;P2;SDS_P1;SDS_P2;PMS_P1;PMS_P2;Temp;Humidity;BMP_temperature;BMP_pressure;BME280_temperature;BME280_humidity;BME280_pressure;Samples;Min_cycle;Max_cycle;Signal;HPM_P1;HPM_P2
2023/05/14 00:01:19;;;;;;;4.22;2.35;;;;;;;12.65;45.99;100397.56;5031143;28;20504;-62
2023/05/14 00:03:45;;;;;;;3.90;2.63;;;;;;;12.61;46.27;100399.63;5031333;28;20093;-64
2023/05/14 00:06:10;;;;;;;5.45;2.55;;;;;;;12.58;46.53;100407.94;5032662;28;20048;-63
2023/05/14 00:08:36;;;;;;;5.25;2.78;;;;;;;12.13;46.73;100346.16;5032063;28;20075;-63
2023/05/14 00:11:01;;;;;;;7.25;2.65;;;;;;;12.50;46.54;100410.38;5033319;28;20030;-64
2023/05/14 00:13:27;;;;;;;5.88;2.50;;;;;;;12.44;46.78;100414.41;5031574;28;20037;-60
2023/05/14 00:15:52;;;;;;;5.93;2.70;;;;;;;12.36;46.98;100408.78;5032654;28;20090;-63
2023/05/14 00:18:18;;;;;;;5.60;2.58;;;;;;;12.32;47.50;100410.84;5031203;28;20072;-65
2023/05/14 00:20:43;;;;;;;4.50;3.00;;;;;;;12.36;47.21;100416.84;5036132;28;20065;-63
2023/05/14 00:23:09;;;;;;;5.63;2.72;;;;;;;12.30;47.25;100411.97;5035190;28;20033;-63
2023/05/14 00:25:35;;;;;;;4.80;2.60;;;;;;;12.27;47.35;100412.19;5036496;28;20114;-63
2023/05/14 00:28:02;;;;;;;4.57;2.63;;;;;;;12.24;47.67;100413.31;5036006;28;20029;-63
2023/05/14 00:30:28;;;;;;;6.70;2.55;;;;;;;12.18;48.03;100419.16;5035765;28;20030;-63
2023/05/14 00:32:53;;;;;;;3.92;2.70;;;;;;;12.15;48.12;100409.50;5038790;28;20112;-63
2023/05/14 00:35:20;;;;;;;3.40;2.17;;;;;;;12.11;48.12;100412.53;5056345;28;20418;-64
2023/05/14 00:37:46;;;;;;;3.55;2.60;;;;;;;12.03;48.11;100415.81;5056102;28;20048;-63
2023/05/14 00:40:12;;;;;;;6.78;2.70;;;;;;;11.87;48.29;100390.16;5054881;28;20029;-64
2023/05/14 00:42:41;;;;;;;3.72;2.45;;;;;;;12.05;48.35;100424.59;5055671;28;20045;-64
2023/05/14 00:45:07;;;;;;;3.83;2.55;;;;;;;11.98;48.66;100415.28;5056007;28;20045;-63
2023/05/14 00:47:38;;;;;;;3.40;2.60;;;;;;;11.89;48.68;100409.66;5053999;28;20033;-63
2023/05/14 00:50:04;;;;;;;9.02;3.00;;;;;;;11.82;48.47;100416.47;5055519;28;20114;-64
2023/05/14 00:52:30;;;;;;;5.75;2.80;;;;;;;11.85;48.91;100421.59;5055489;28;20025;-63
2023/05/14 00:54:57;;;;;;;4.63;2.45;;;;;;;11.82;48.97;100432.59;5056062;28;20056;-63
2023/05/14 00:57:23;;;;;;;6.20;2.65;;;;;;;11.79;49.30;100422.06;5038403;28;20033;-63
2023/05/14 00:59:49;;;;;;;7.60;2.85;;;;;;;11.74;49.38;100421.56;5035341;28;20427;-62
2023/05/14 01:02:15;;;;;;;6.00;2.60;;;;;;;11.58;49.53;100412.00;5035358;28;20545;-63
2023/05/14 01:04:40;;;;;;;5.32;2.45;;;;;;;11.49;49.71;100402.84;5035313;28;20109;-62
2023/05/14 01:07:19;;;;;;;4.88;2.50;;;;;;;11.70;49.60;100430.81;5035030;28;20095;-62
2023/05/14 01:09:51;;;;;;;5.40;2.58;;;;;;;11.67;49.58;100434.56;5035199;28;20033;-63
2023/05/14 01:12:35;;;;;;;5.20;2.63;;;;;;;11.66;49.76;100432.03;5033849;28;20082;-64
2023/05/14 01:15:15;;;;;;;8.02;2.80;;;;;;;11.60;49.99;100433.34;5034905;28;20116;-63
2023/05/14 01:17:55;;;;;;;6.00;2.50;;;;;;;11.45;49.96;100408.53;5035868;28;20068;-63
2023/05/14 01:20:21;;;;;;;5.60;2.85;;;;;;;11.50;50.31;100441.22;5035160;28;20177;-62
2023/05/14 01:22:47;;;;;;;4.15;2.67;;;;;;;11.44;50.46;100439.84;5034909;28;20029;-63
2023/05/14 01:25:13;;;;;;;6.45;2.80;;;;;;;11.44;50.35;100441.69;5035132;28;20349;-64
2023/05/14 01:27:56;;;;;;;6.72;2.60;;;;;;;11.51;50.53;100437.56;5034935;28;20130;-62
2023/05/14 01:30:35;;;;;;;5.43;2.50;;;;;;;11.51;50.10;100445.59;5034376;28;20040;-63
2023/05/14 01:33:05;;;;;;;7.53;2.50;;;;;;;11.42;50.34;100444.47;5034908;28;20466;-62
2023/05/14 01:35:31;;;;;;;7.43;3.25;;;;;;;11.41;50.46;100450.78;5035242;28;20048;-62
2023/05/14 01:38:03;;;;;;;5.30;2.38;;;;;;;11.42;50.16;100446.31;5035179;28;20127;-63
2023/05/14 01:40:30;;;;;;;6.60;2.60;;;;;;;11.40;50.32;100443.72;5034953;28;20047;-63
2023/05/14 01:42:56;;;;;;;5.35;2.40;;;;;;;11.41;50.76;100448.09;5034768;28;20053;-63
2023/05/14 01:45:25;;;;;;;5.20;2.65;;;;;;;11.45;50.74;100454.13;5034800;28;20134;-63
2023/05/14 01:47:52;;;;;;;6.25;2.50;;;;;;;11.43;50.87;100451.53;5034905;28;20053;-62
2023/05/14 01:50:18;;;;;;;5.35;2.83;;;;;;;11.48;50.88;100456.56;5054497;28;20040;-63
2023/05/14 01:52:44;;;;;;;5.13;2.45;;;;;;;11.48;50.74;100464.59;5053970;28;20029;-62
2023/05/14 01:55:09;;;;;;;7.05;2.67;;;;;;;11.51;50.81;100464.38;5053956;28;20033;-63
2023/05/14 01:57:35;;;;;;;5.78;2.60;;;;;;;11.49;50.71;100452.91;5054215;28;20116;-63
2023/05/14 02:00:01;;;;;;;8.95;2.83;;;;;;;11.54;50.60;100457.94;5037333;28;20092;-63
2023/05/14 02:02:26;;;;;;;6.93;2.67;;;;;;;11.53;50.25;100451.72;5034177;28;20108;-62
2023/05/14 02:04:52;;;;;;;6.82;2.85;;;;;;;11.61;50.27;100464.53;5033951;28;20831;-63
2023/05/14 02:07:18;;;;;;;5.35;2.33;;;;;;;11.65;50.11;100471.38;5034154;28;20025;-63
2023/05/14 02:09:43;;;;;;;7.22;2.65;;;;;;;11.70;49.97;100471.91;5034249;28;20041;-63
2023/05/14 02:12:10;;;;;;;4.43;2.47;;;;;;;11.71;49.88;100467.41;5034056;28;20047;-62
2023/05/14 02:14:36;;;;;;;8.20;2.58;;;;;;;11.77;49.67;100464.25;5033925;28;20040;-62
2023/05/14 02:17:02;;;;;;;7.90;2.55;;;;;;;11.79;49.91;100462.28;5034354;28;20034;-63
2023/05/14 02:19:28;;;;;;;4.47;2.20;;;;;;;11.87;49.49;100476.00;5046032;28;20136;-63
2023/05/14 02:22:14;;;;;;;;;;;;;;;12.26;47.97;100469.53;5053651;28;20037;-63
2023/05/14 02:24:39;;;;;;;4.43;2.50;;;;;;;12.14;48.78;100465.97;5053637;28;19919;-62
2023/05/14 02:27:05;;;;;;;5.13;2.75;;;;;;;12.12;48.72;100470.59;5053659;28;20255;-63
2023/05/14 02:29:31;;;;;;;5.43;2.45;;;;;;;12.11;48.61;100472.47;5054186;28;20048;-63
2023/05/14 02:31:56;;;;;;;6.90;2.35;;;;;;;12.15;48.36;100468.56;5053719;28;20029;-64
2023/05/14 02:34:22;;;;;;;5.10;2.35;;;;;;;12.15;48.79;100473.06;5052914;28;20044;-62
2023/05/14 02:36:48;;;;;;;5.00;2.65;;;;;;;12.17;48.74;100476.47;5053021;28;20037;-63
2023/05/14 02:39:13;;;;;;;4.88;2.50;;;;;;;12.19;49.00;100480.75;5053559;28;20171;-63
2023/05/14 02:41:39;;;;;;;3.92;2.13;;;;;;;12.19;48.77;100483.44;5051492;28;20053;-61
2023/05/14 02:44:04;;;;;;;6.95;2.65;;;;;;;12.21;48.65;100483.34;5051828;28;20047;-62
2023/05/14 02:46:31;;;;;;;4.30;2.85;;;;;;;12.24;48.87;100495.66;5053561;28;20147;-62
2023/05/14 02:48:57;;;;;;;5.95;2.50;;;;;;;12.01;48.52;100444.59;5053634;28;20037;-63
2023/05/14 02:51:23;;;;;;;5.80;2.53;;;;;;;12.31;48.69;100488.84;5053409;28;20035;-63
2023/05/14 02:53:48;;;;;;;4.63;2.72;;;;;;;12.31;48.55;100489.69;5053330;28;20044;-63
2023/05/14 02:56:14;;;;;;;3.20;2.63;;;;;;;12.31;48.73;100491.53;5052709;28;20025;-62
2023/05/14 02:58:40;;;;;;;6.55;2.47;;;;;;;12.41;48.52;100497.03;5052443;28;20036;-64
2023/05/14 03:01:06;;;;;;;3.50;2.65;;;;;;;12.42;48.43;100496.06;5053326;28;20387;-63
2023/05/14 03:03:31;;;;;;;6.95;2.67;;;;;;;12.31;48.39;100462.00;5048260;28;20029;-60
2023/05/14 03:05:57;;;;;;;4.93;2.40;;;;;;;12.56;47.90;100481.56;5032792;28;20041;-62
2023/05/14 03:08:22;;;;;;;6.40;2.40;;;;;;;12.64;47.91;100488.03;5032884;28;20415;-64
2023/05/14 03:10:48;;;;;;;9.77;2.63;;;;;;;12.74;47.77;100490.00;5032858;28;20033;-62
2023/05/14 03:13:16;;;;;;;4.32;2.25;;;;;;;12.63;47.63;100461.28;5032665;28;20075;-63
2023/05/14 03:15:43;;;;;;;4.65;2.30;;;;;;;12.96;47.18;100502.56;5032807;28;20440;-63
2023/05/14 03:18:08;;;;;;;7.80;2.58;;;;;;;13.04;46.96;100504.66;5032835;28;20103;-61
2023/05/14 03:20:34;;;;;;;6.72;2.45;;;;;;;13.14;47.06;100507.44;5033101;28;20440;-62
2023/05/14 03:23:00;;;;;;;3.10;2.22;;;;;;;13.29;46.39;100506.22;5032787;28;20033;-63
2023/05/14 03:25:26;;;;;;;6.60;2.20;;;;;;;13.49;46.08;100507.31;5035286;28;20078;-62
2023/05/14 03:27:51;;;;;;;4.43;2.15;;;;;;;13.81;45.26;100512.81;5052523;28;20036;-63
2023/05/14 03:30:17;;;;;;;11.20;2.50;;;;;;;14.38;44.25;100507.19;5052732;28;20037;-62
2023/05/14 03:32:43;;;;;;;4.20;2.40;;;;;;;15.01;42.03;100481.97;5052578;28;20052;-62
2023/05/14 03:35:08;;;;;;;6.68;2.38;;;;;;;15.97;40.50;100521.94;5052214;28;20060;-62
2023/05/14 03:37:34;;;;;;;4.32;2.13;;;;;;;16.62;38.58;100482.59;5052847;28;20064;-64
2023/05/14 03:40:00;;;;;;;3.85;2.35;;;;;;;17.55;37.28;100506.06;5052350;28;20025;-62
2023/05/14 03:42:25;;;;;;;4.45;2.50;;;;;;;18.30;35.57;100507.66;5051763;28;20063;-63
2023/05/14 03:44:51;;;;;;;4.03;2.20;;;;;;;19.05;33.70;100511.69;5052290;28;20068;-63
2023/05/14 03:47:17;;;;;;;4.82;2.20;;;;;;;19.74;32.58;100509.84;5052257;28;20079;-63
2023/05/14 03:49:42;;;;;;;4.35;2.28;;;;;;;20.55;30.96;100503.78;5032345;28;20037;-63
2023/05/14 03:52:07;;;;;;;5.78;2.50;;;;;;;21.26;29.82;100505.78;5032372;28;20368;-63
2023/05/14 03:54:33;;;;;;;8.30;2.17;;;;;;;21.83;29.14;100506.50;5031316;28;20120;-63
2023/05/14 03:56:59;;;;;;;3.92;2.10;;;;;;;22.58;27.75;100504.84;5032604;28;20296;-62
2023/05/14 03:59:24;;;;;;;4.97;2.13;;;;;;;23.42;26.40;100510.22;5031150;28;20065;-63
2023/05/14 04:01:50;;;;;;;4.63;2.00;;;;;;;23.86;25.60;100514.66;5031137;28;20032;-63
2023/05/14 04:04:15;;;;;;;5.40;2.25;;;;;;;23.90;25.04;100517.84;5048395;28;20033;-63
2023/05/14 04:06:41;;;;;;;4.80;1.98;;;;;;;23.82;24.92;100512.53;5052416;28;20060;-64
2023/05/14 04:09:06;;;;;;;3.42;1.83;;;;;;;24.52;24.56;100510.84;5052008;28;20131;-64
2023/05/14 04:11:32;;;;;;;4.93;2.13;;;;;;;25.60;23.14;100511.47;5050220;28;20037;-67
2023/05/14 04:13:57;;;;;;;4.13;1.90;;;;;;;26.05;21.97;100513.63;5052293;28;20029;-62
2023/05/14 04:16:23;;;;;;;3.97;1.70;;;;;;;26.04;22.11;100516.56;5051425;28;20041;-61
2023/05/14 04:18:48;;;;;;;4.28;1.90;;;;;;;25.75;22.56;100519.50;5050871;28;20105;-62
2023/05/14 04:21:14;;;;;;;6.40;1.90;;;;;;;25.92;21.99;100508.97;5031664;28;20025;-61
2023/05/14 04:23:39;;;;;;;3.97;1.80;;;;;;;25.90;22.02;100491.88;5032730;28;20407;-56
2023/05/14 04:26:05;;;;;;;6.63;1.90;;;;;;;25.88;21.89;100502.22;5032482;28;20108;-57
2023/05/14 04:28:30;;;;;;;4.05;1.83;;;;;;;26.22;21.16;100516.00;5030913;28;20573;-62
2023/05/14 04:30:56;;;;;;;3.17;1.55;;;;;;;26.14;21.69;100524.41;5030856;28;20037;-60
2023/05/14 04:33:22;;;;;;;7.75;1.90;;;;;;;26.65;21.22;100517.44;5041804;28;20029;-53
2023/05/14 04:35:47;;;;;;;6.93;1.70;;;;;;;28.30;19.81;100513.53;5052054;28;20539;-60
2023/05/14 04:38:13;;;;;;;6.50;1.92;;;;;;;29.70;18.27;100518.56;5051947;28;20122;-59
2023/05/14 04:40:40;;;;;;;3.05;1.70;;;;;;;30.11;17.28;100524.34;5052100;28;20060;-58
2023/05/14 04:43:06;;;;;;;5.32;1.73;;;;;;;30.78;16.75;100514.09;5051963;28;20063;-61
2023/05/14 04:45:32;;;;;;;3.17;1.80;;;;;;;31.10;16.21;100521.94;5052181;28;20047;-59
2023/05/14 04:47:58;;;;;;;5.13;1.50;;;;;;;31.49;16.03;100521.38;5051380;28;20032;-59
2023/05/14 04:50:25;;;;;;;3.08;1.48;;;;;;;31.44;15.71;100497.19;5051535;28;20106;-60
2023/05/14 04:52:51;;;;;;;4.03;1.30;;;;;;;32.06;15.54;100519.66;5051953;28;20044;-59
2023/05/14 04:55:16;;;;;;;5.45;1.52;;;;;;;32.90;14.84;100528.22;5049720;28;20037;-59
2023/05/14 04:57:42;;;;;;;3.40;1.52;;;;;;;33.51;14.17;100518.97;5050304;28;20391;-59
2023/05/14 05:00:08;;;;;;;1.77;1.40;;;;;;;33.69;13.82;100528.91;5051786;28;20219;-60
2023/05/14 05:02:34;;;;;;;2.40;1.58;;;;;;;34.01;13.72;100524.50;5039847;28;20041;-58
2023/05/14 05:05:00;;;;;;;4.13;1.70;;;;;;;34.16;13.59;100523.81;5031993;28;20091;-60
2023/05/14 05:07:25;;;;;;;5.90;1.90;;;;;;;34.20;13.41;100514.66;5034996;28;20060;-61
2023/05/14 05:09:51;;;;;;;4.13;1.40;;;;;;;34.53;13.08;100531.31;5035033;28;20087;-60
2023/05/14 05:12:16;;;;;;;5.00;1.65;;;;;;;35.02;12.75;100527.47;5041855;28;20489;-59
2023/05/14 05:14:42;;;;;;;3.08;1.20;;;;;;;35.71;12.04;100516.28;5044505;28;20025;-59
2023/05/14 05:17:07;;;;;;;2.40;1.30;;;;;;;36.10;11.65;100523.28;5043685;28;20037;-59
2023/05/14 05:19:33;;;;;;;3.65;1.30;;;;;;;36.54;11.47;100521.91;5042779;28;20728;-59
2023/05/14 05:21:58;;;;;;;2.42;1.52;;;;;;;36.09;11.41;100531.94;5042542;28;20025;-61
2023/05/14 05:24:24;;;;;;;4.65;1.25;;;;;;;36.38;11.24;100526.63;5042516;28;20034;-61
2023/05/14 05:26:50;;;;;;;1.80;1.30;;;;;;;36.49;11.11;100525.50;5044262;28;20368;-59
2023/05/14 05:29:16;;;;;;;1.95;1.20;;;;;;;37.24;10.94;100523.06;5041926;28;20033;-60
2023/05/14 05:31:42;;;;;;;1.40;1.25;;;;;;;37.88;10.53;100526.06;5034906;28;20037;-60
2023/05/14 05:34:07;;;;;;;3.53;1.67;;;;;;;38.71;9.73;100514.13;5050697;28;20033;-57
2023/05/14 05:36:33;;;;;;;4.43;1.40;;;;;;;39.11;9.63;100516.75;5053900;28;20345;-57
2023/05/14 05:38:58;;;;;;;3.97;1.48;;;;;;;39.28;9.31;100516.25;5054218;28;20025;-59
2023/05/14 05:41:25;;;;;;;2.00;1.48;;;;;;;39.64;8.87;100516.91;5054457;28;20156;-61
2023/05/14 05:43:51;;;;;;;3.47;1.40;;;;;;;40.47;8.99;100511.59;5054667;28;20444;-61
2023/05/14 05:46:17;;;;;;;4.32;1.60;;;;;;;40.40;8.51;100510.34;5051418;28;20032;-61
2023/05/14 05:48:43;;;;;;;3.45;1.50;;;;;;;40.89;8.68;100510.81;5054676;28;20032;-61
2023/05/14 05:51:08;;;;;;;2.38;1.45;;;;;;;41.41;8.05;100504.09;5053694;28;20351;-60
2023/05/14 05:53:34;;;;;;;3.10;1.33;;;;;;;42.33;7.83;100505.78;5040984;28;20049;-61
2023/05/14 05:55:59;;;;;;;4.53;1.50;;;;;;;43.06;7.23;100492.50;5034185;28;20041;-60
2023/05/14 05:58:25;;;;;;;1.95;1.70;;;;;;;43.58;7.22;100488.94;5034323;28;20448;-59
2023/05/14 06:00:50;;;;;;;5.93;1.58;;;;;;;43.87;6.49;100499.50;5034565;28;20036;-56
2023/05/14 06:03:16;;;;;;;2.65;1.50;;;;;;;43.38;6.88;100493.22;5034282;28;20029;-58
2023/05/14 06:05:41;;;;;;;2.35;1.25;;;;;;;43.74;6.50;100492.09;5034325;28;20022;-59
2023/05/14 06:08:07;;;;;;;3.92;1.70;;;;;;;44.25;6.19;100495.13;5043370;28;20041;-58
2023/05/14 06:10:33;;;;;;;4.35;1.45;;;;;;;44.63;6.03;100489.88;5054460;28;20029;-60
2023/05/14 06:12:59;;;;;;;2.10;1.45;;;;;;;44.41;6.12;100489.78;5053824;28;20108;-60
2023/05/14 06:15:24;;;;;;;2.40;1.30;;;;;;;44.05;6.25;100496.66;5053649;28;20180;-60
2023/05/14 06:17:50;;;;;;;2.70;1.50;;;;;;;44.11;6.42;100489.69;5053075;28;20071;-61
2023/05/14 06:20:15;;;;;;;2.80;1.58;;;;;;;43.92;6.63;100497.72;5054552;28;20029;-59
2023/05/14 06:22:41;;;;;;;2.75;1.58;;;;;;;43.35;6.57;100491.06;5045402;28;20041;-58
2023/05/14 06:25:07;;;;;;;4.75;1.50;;;;;;;43.68;6.23;100496.22;5032742;28;20030;-59
2023/05/14 06:27:32;;;;;;;1.88;1.20;;;;;;;44.27;6.28;100491.97;5033714;28;20413;-60
2023/05/14 06:29:58;;;;;;;3.83;1.40;;;;;;;44.77;6.02;100478.31;5037395;28;20585;-61
2023/05/14 06:32:23;;;;;;;2.70;1.25;;;;;;;45.27;5.76;100488.00;5053702;28;20471;-59
2023/05/14 06:34:49;;;;;;;5.43;1.30;;;;;;;45.83;5.21;100495.34;5051756;28;20117;-61
2023/05/14 06:37:14;;;;;;;5.00;1.25;;;;;;;45.73;5.08;100496.63;5053603;28;20043;-60
2023/05/14 06:39:46;;;;;;;4.20;1.38;;;;;;;46.04;4.99;100497.31;5052817;28;20033;-61
2023/05/14 06:42:12;;;;;;;2.17;1.10;;;;;;;44.87;5.48;100483.59;5053404;28;20045;-55
2023/05/14 06:44:38;;;;;;;2.70;1.25;;;;;;;44.57;5.28;100486.41;5053079;28;20064;-60
2023/05/14 06:47:07;;;;;;;4.22;1.20;;;;;;;45.29;5.30;100477.16;5052943;28;20041;-58
2023/05/14 06:49:33;;;;;;;3.40;1.05;;;;;;;45.71;4.74;100487.63;5043084;28;20172;-61
2023/05/14 06:51:59;;;;;;;2.20;1.20;;;;;;;45.90;4.58;100463.69;5033107;28;20463;-61
2023/05/14 06:54:25;;;;;;;3.15;1.10;;;;;;;45.35;4.89;100486.31;5033212;28;20030;-61
2023/05/14 06:56:50;;;;;;;3.60;1.27;;;;;;;44.50;5.29;100474.78;5032226;28;20025;-61
2023/05/14 06:59:16;;;;;;;5.00;1.05;;;;;;;45.21;5.04;100481.72;5033620;28;20112;-64
2023/05/14 07:01:41;;;;;;;5.75;1.20;;;;;;;46.06;4.61;100486.47;5033282;28;20029;-59
2023/05/14 07:04:07;;;;;;;2.25;1.10;;;;;;;45.41;4.92;100484.91;5034052;28;20356;-60
2023/05/14 07:06:32;;;;;;;5.00;1.30;;;;;;;43.38;5.41;100501.66;5033162;28;20029;-60
2023/05/14 07:09:00;;;;;;;1.70;1.08;;;;;;;42.99;5.77;100493.81;5034121;28;20467;-60
2023/05/14 07:11:25;;;;;;;5.07;1.20;;;;;;;40.63;6.75;100502.88;5032950;28;20076;-60
2023/05/14 07:13:51;;;;;;;4.30;1.00;;;;;;;37.29;8.84;100509.09;5032964;28;20069;-57
2023/05/14 07:16:16;;;;;;;3.42;1.10;;;;;;;34.83;10.32;100502.00;5033203;28;20884;-59
2023/05/14 07:18:44;;;;;;;2.00;0.82;;;;;;;32.42;12.34;100511.97;5040122;28;20032;-59
2023/05/14 07:21:09;;;;;;;1.20;0.90;;;;;;;30.66;13.42;100508.56;5041944;28;20044;-54
2023/05/14 07:23:37;;;;;;;2.95;1.23;;;;;;;29.00;15.27;100512.44;5038519;28;20032;-57
2023/05/14 07:26:05;;;;;;;4.85;1.23;;;;;;;28.38;15.79;100513.25;5040591;28;20044;-54
2023/05/14 07:28:31;;;;;;;6.38;1.50;;;;;;;27.58;16.22;100510.00;5039928;28;20036;-57
2023/05/14 07:30:57;;;;;;;3.83;1.20;;;;;;;26.46;17.54;100509.00;5039573;28;20057;-55
2023/05/14 07:33:23;;;;;;;9.23;1.60;;;;;;;25.56;18.91;100512.94;5036745;28;20080;-62
2023/05/14 07:35:49;;;;;;;2.75;1.10;;;;;;;24.56;20.10;100530.47;5041592;28;20111;-57
2023/05/14 07:38:15;;;;;;;2.70;1.20;;;;;;;23.91;20.82;100531.34;5041620;28;20100;-56
2023/05/14 07:40:42;;;;;;;4.82;1.45;;;;;;;23.46;21.83;100525.19;5040311;28;20047;-54
2023/05/14 07:43:08;;;;;;;3.55;1.45;;;;;;;23.18;21.66;100525.84;5041907;28;20049;-60
2023/05/14 07:45:36;;;;;;;5.07;1.10;;;;;;;24.26;20.64;100503.28;5040822;28;20349;-59
2023/05/14 07:48:01;;;;;;;3.35;1.42;;;;;;;26.75;18.09;100511.50;5040552;28;20021;-59
2023/05/14 07:50:27;;;;;;;3.55;1.10;;;;;;;26.73;17.60;100514.47;5041671;28;20367;-51
2023/05/14 07:52:52;;;;;;;5.28;1.20;;;;;;;26.56;18.02;100518.75;5040573;28;20383;-51
2023/05/14 07:55:18;;;;;;;4.45;1.55;;;;;;;27.37;17.44;100511.97;5041255;28;20336;-57
2023/05/14 07:57:45;;;;;;;3.75;0.77;;;;;;;28.22;16.57;100518.28;5042173;28;20040;-59
2023/05/14 08:00:11;;;;;;;2.33;1.25;;;;;;;27.46;17.01;100490.56;5038262;28;20632;-56
2023/05/14 08:02:36;;;;;;;5.13;1.00;;;;;;;26.49;18.21;100519.56;5045134;28;20371;-55
2023/05/14 08:05:02;;;;;;;2.95;1.13;;;;;;;25.33;20.00;100526.94;5051219;28;20036;-57
2023/05/14 08:07:30;;;;;;;4.65;1.23;;;;;;;24.32;20.34;100534.47;5051017;28;20367;-53
2023/05/14 08:09:56;;;;;;;3.78;1.08;;;;;;;23.33;21.10;100513.03;5051540;28;20029;-53
2023/05/14 08:12:21;;;;;;;3.78;1.15;;;;;;;23.04;21.64;100531.13;5051432;28;20033;-56
2023/05/14 08:14:47;;;;;;;5.43;1.08;;;;;;;22.99;21.72;100528.13;5052228;28;20025;-57
2023/05/14 08:17:13;;;;;;;4.40;1.02;;;;;;;22.73;22.12;100523.97;5031752;28;20491;-54
2023/05/14 08:19:38;;;;;;;4.72;1.30;;;;;;;22.46;22.99;100536.31;5031724;28;20037;-53
2023/05/14 08:22:04;;;;;;;6.30;1.63;;;;;;;22.16;23.40;100528.88;5031555;28;20029;-53
2023/05/14 08:24:30;;;;;;;4.95;1.20;;;;;;;21.93;23.75;100534.34;5040925;28;20028;-57
2023/05/14 08:26:55;;;;;;;1.98;1.40;;;;;;;21.37;24.18;100517.13;5046998;28;20045;-61
2023/05/14 08:29:21;;;;;;;3.03;1.20;;;;;;;21.32;24.34;100522.25;5051792;28;20049;-61
2023/05/14 08:31:48;;;;;;;3.92;1.05;;;;;;;20.99;24.57;100530.56;5043138;28;20043;-63
2023/05/14 08:34:14;;;;;;;6.20;1.50;;;;;;;20.84;24.96;100535.84;5041578;28;20053;-63
2023/05/14 08:36:40;;;;;;;3.50;1.13;;;;;;;20.61;25.80;100531.09;5047565;28;20167;-62
2023/05/14 08:39:08;;;;;;;4.43;1.35;;;;;;;20.58;25.84;100527.91;5040781;28;20051;-61
2023/05/14 08:41:35;;;;;;;3.83;1.40;;;;;;;20.59;26.23;100532.31;5035807;28;20375;-58
2023/05/14 08:44:10;;;;;;;4.07;1.40;;;;;;;20.65;25.98;100535.22;5040342;28;20376;-59
2023/05/14 08:46:37;;;;;;;;;;;;;;;21.12;24.83;100537.31;5050633;28;20030;-55
2023/05/14 08:49:39;;;;;;;6.40;1.15;;;;;;;20.90;25.42;100537.91;5044622;28;19956;-59
2023/05/14 08:52:05;;;;;;;2.38;1.10;;;;;;;20.72;26.52;100529.91;5036941;28;20045;-61
2023/05/14 08:54:31;;;;;;;2.25;1.00;;;;;;;20.57;26.27;100512.59;5042354;28;20451;-60
2023/05/14 08:56:58;;;;;;;1.58;1.20;;;;;;;20.92;25.28;100532.28;5034479;28;20033;-60
2023/05/14 08:59:23;;;;;;;7.57;1.50;;;;;;;20.59;25.90;100503.22;5053215;28;20039;-63
2023/05/14 09:01:52;;;;;;;6.65;1.55;;;;;;;20.70;26.29;100522.94;5040988;28;20029;-61
2023/05/14 09:04:23;;;;;;;5.28;1.40;;;;;;;21.10;25.96;100525.75;5038981;28;20065;-61
2023/05/14 09:06:53;;;;;;;5.50;1.20;;;;;;;21.28;25.70;100520.06;5053468;28;20033;-60
2023/05/14 09:09:22;;;;;;;8.45;1.50;;;;;;;21.72;24.47;100522.22;5050277;28;20044;-64
2023/05/14 09:11:50;;;;;;;8.32;1.35;;;;;;;21.84;24.44;100519.09;5038855;28;20037;-62
2023/05/14 09:14:16;;;;;;;3.80;1.30;;;;;;;21.96;24.15;100512.19;5043360;28;20029;-61
2023/05/14 09:16:47;;;;;;;6.97;1.17;;;;;;;22.43;23.93;100526.63;5046557;28;20341;-61
2023/05/14 09:19:14;;;;;;;4.60;1.15;;;;;;;22.51;23.54;100522.97;5043568;28;20033;-61
2023/05/14 09:21:41;;;;;;;2.47;1.08;;;;;;;22.45;22.73;100523.69;5025538;28;20021;-61
2023/05/14 09:24:07;;;;;;;5.18;1.33;;;;;;;22.13;22.95;100521.06;5043946;28;20170;-61
2023/05/14 09:26:34;;;;;;;4.57;1.30;;;;;;;21.73;23.61;100513.03;5041194;28;20053;-62
2023/05/14 09:29:03;;;;;;;1.50;1.00;;;;;;;21.63;23.48;100512.38;5043667;28;20234;-62
2023/05/14 09:31:30;;;;;;;7.35;4.38;;;;;;;21.82;24.17;100516.53;5040806;28;20124;-62
2023/05/14 09:33:57;;;;;;;6.00;1.30;;;;;;;22.17;22.88;100518.84;5041311;28;20472;-62
2023/05/14 09:36:26;;;;;;;1.52;1.20;;;;;;;22.07;23.23;100509.03;5050548;28;20045;-62
2023/05/14 09:38:59;;;;;;;4.60;1.98;;;;;;;22.16;23.40;100517.97;5053432;28;20024;-62
2023/05/14 09:41:25;;;;;;;4.85;1.10;;;;;;;22.17;23.86;100527.84;5053109;28;20060;-62
2023/05/14 09:43:50;;;;;;;3.28;1.23;;;;;;;22.21;23.38;100520.16;5053612;28;20037;-62
2023/05/14 09:46:16;;;;;;;2.22;1.15;;;;;;;22.21;23.14;100492.88;5052963;28;20367;-62
2023/05/14 09:48:42;;;;;;;1.58;1.10;;;;;;;22.44;22.47;100509.22;5051697;28;20029;-62
2023/05/14 09:51:12;;;;;;;3.08;0.98;;;;;;;22.38;22.70;100518.13;5052908;28;20021;-62
2023/05/14 09:53:40;;;;;;;2.30;1.23;;;;;;;22.32;23.67;100510.69;5053010;28;20068;-63
2023/05/14 09:56:06;;;;;;;3.38;1.20;;;;;;;22.51;23.64;100512.94;5036476;28;20041;-62
2023/05/14 09:58:31;;;;;;;2.10;1.17;;;;;;;22.77;23.29;100502.59;5035810;28;20049;-61
2023/05/14 10:00:57;;;;;;;2.13;1.17;;;;;;;22.90;22.82;100505.53;5053973;28;20029;-62
2023/05/14 10:03:26;;;;;;;3.05;1.23;;;;;;;22.89;22.56;100511.16;5054309;28;20447;-62
2023/05/14 10:05:54;;;;;;;2.08;1.17;;;;;;;22.37;23.56;100509.13;5053387;28;20086;-62
2023/05/14 10:08:32;;;;;;;4.25;1.30;;;;;;;22.12;23.78;100516.66;5054348;28;20025;-61
2023/05/14 10:11:00;;;;;;;6.53;1.48;;;;;;;21.79;23.80;100506.84;5054289;28;20025;-62
2023/05/14 10:13:35;;;;;;;3.85;1.35;;;;;;;21.70;24.26;100493.44;5053165;28;20059;-62
2023/05/14 10:16:13;;;;;;;6.72;1.42;;;;;;;21.76;24.39;100506.38;5053609;28;20029;-62
2023/05/14 10:18:41;;;;;;;3.88;1.42;;;;;;;21.67;23.71;100491.09;5053533;28;20041;-63
2023/05/14 10:21:09;;;;;;;5.45;1.40;;;;;;;21.95;24.14;100507.75;5052953;28;20029;-63
2023/05/14 10:23:36;;;;;;;4.22;1.40;;;;;;;21.98;23.50;100506.56;5054100;28;20056;-62
2023/05/14 10:26:03;;;;;;;2.95;1.60;;;;;;;21.93;24.03;100507.09;5053706;28;20048;-62
2023/05/14 10:28:30;;;;;;;8.15;1.63;;;;;;;21.92;24.07;100511.69;5053669;28;20059;-65
2023/05/14 10:30:56;;;;;;;5.60;1.55;;;;;;;21.94;23.18;100498.75;5054422;28;20162;-62
2023/05/14 10:33:22;;;;;;;3.28;1.33;;;;;;;21.73;23.84;100498.56;5053138;28;20127;-62
2023/05/14 10:35:54;;;;;;;4.57;1.20;;;;;;;21.61;24.67;100503.56;5053090;28;20029;-62
2023/05/14 10:38:28;;;;;;;9.38;1.60;;;;;;;21.65;24.21;100500.28;5053474;28;20482;-62
2023/05/14 10:41:03;;;;;;;4.70;1.33;;;;;;;21.69;24.47;100499.94;5054302;28;20028;-62
2023/05/14 10:43:29;;;;;;;8.18;1.27;;;;;;;21.40;25.53;100502.31;5035317;28;20116;-62
2023/05/14 10:45:57;;;;;;;3.22;0.80;;;;;;;21.21;25.81;100503.56;5033641;28;20052;-62
2023/05/14 10:48:23;;;;;;;2.88;1.50;;;;;;;20.91;26.31;100503.34;5032514;28;20022;-62
2023/05/14 10:50:50;;;;;;;4.75;1.25;;;;;;;20.77;26.14;100513.94;5033245;28;20044;-62
2023/05/14 10:53:17;;;;;;;5.28;1.30;;;;;;;20.49;26.52;100500.69;5033162;28;20064;-63
2023/05/14 10:55:43;;;;;;;5.47;1.50;;;;;;;20.38;26.90;100498.34;5033185;28;20029;-61
2023/05/14 10:58:12;;;;;;;3.00;1.75;;;;;;;20.42;27.02;100502.41;5032939;28;20318;-62
2023/05/14 11:00:40;;;;;;;5.80;1.60;;;;;;;20.42;27.00;100505.13;5015622;28;20033;-61
2023/05/14 11:03:06;;;;;;;4.22;1.50;;;;;;;20.71;26.53;100492.84;5043531;28;20108;-62
2023/05/14 11:05:35;;;;;;;4.53;1.30;;;;;;;21.09;25.85;100500.38;5052931;28;20043;-61
2023/05/14 11:08:05;;;;;;;4.43;1.30;;;;;;;21.32;25.81;100495.03;5052755;28;20029;-62
2023/05/14 11:10:31;;;;;;;4.47;1.70;;;;;;;21.39;25.79;100500.59;5052631;28;20037;-61
2023/05/14 11:12:57;;;;;;;4.57;1.48;;;;;;;21.48;25.43;100498.69;5053275;28;20040;-60
2023/05/14 11:15:25;;;;;;;6.05;1.60;;;;;;;21.34;25.80;100503.84;5052744;28;20021;-62
2023/05/14 11:17:51;;;;;;;4.75;1.58;;;;;;;21.17;25.89;100494.06;5051290;28;20036;-62
2023/05/14 11:20:18;;;;;;;4.85;1.58;;;;;;;20.91;25.81;100487.88;5052792;28;20040;-61
2023/05/14 11:22:46;;;;;;;8.52;1.70;;;;;;;20.65;26.69;100504.41;5045839;28;20112;-61
2023/05/14 11:25:13;;;;;;;4.50;1.60;;;;;;;20.58;27.08;100503.41;5032555;28;20065;-63